createdAt,value
2023-01-22T00:00:56.561Z,79.09
2023-01-22T00:01:58.438Z,79.18
2023-01-22T00:03:22.316Z,79.20
2023-01-22T00:04:44.901Z,78.98
2023-01-22T00:06:07.394Z,79.19
2023-01-22T00:07:29.886Z,78.94
2023-01-22T00:08:53.308Z,79.04
2023-01-22T00:10:16.219Z,79.12
2023-01-22T00:11:38.829Z,78.79
2023-01-22T00:13:01.301Z,78.59
2023-01-22T00:14:23.819Z,79.05
2023-01-22T00:15:46.536Z,79.08
2023-01-22T00:17:09.036Z,79.04
2023-01-22T00:18:32.061Z,79.09
2023-01-22T00:19:54.529Z,79.29
2023-01-22T00:21:16.139Z,78.85
2023-01-22T00:22:38.615Z,78.69
2023-01-22T00:24:00.319Z,79.15
2023-01-22T00:25:23.872Z,79.08
2023-01-22T00:26:46.375Z,79.19
2023-01-22T00:28:08.916Z,79.00
2023-01-22T00:29:31.357Z,79.28
2023-01-22T00:30:57.706Z,79.04
2023-01-22T00:32:20.417Z,79.15
2023-01-22T00:33:44.496Z,79.06
2023-01-22T00:35:07.925Z,78.77
2023-01-22T00:36:31.494Z,78.75
2023-01-22T00:37:53.130Z,79.14
2023-01-22T00:39:15.962Z,79.09
2023-01-22T00:40:37.787Z,79.00
2023-01-22T00:42:00.587Z,78.88
2023-01-22T00:43:22.723Z,78.95
2023-01-22T00:44:45.272Z,78.99
2023-01-22T00:46:07.728Z,79.09
2023-01-22T00:47:30.520Z,78.78
2023-01-22T00:48:53.475Z,79.04
2023-01-22T00:50:16.355Z,78.96
2023-01-22T00:51:39.413Z,79.25
2023-01-22T00:53:03.759Z,78.67
2023-01-22T00:54:26.242Z,78.99
2023-01-22T00:55:52.402Z,79.09
2023-01-22T00:57:14.970Z,78.35
2023-01-22T00:58:36.707Z,79.07
2023-01-22T00:59:59.175Z,78.48
2023-01-22T01:01:21.671Z,78.81
2023-01-22T01:02:58.376Z,78.99
2023-01-22T01:04:22.430Z,78.95
2023-01-22T01:05:43.931Z,78.68
2023-01-22T01:07:06.596Z,78.66
2023-01-22T01:08:30.781Z,78.74
2023-01-22T01:09:36.121Z,78.57
2023-01-22T01:10:38.609Z,78.78
2023-01-22T01:11:41.237Z,78.68
2023-01-22T01:12:42.752Z,78.58
2023-01-22T01:13:46.000Z,78.62
2023-01-22T01:14:47.507Z,78.32
2023-01-22T01:15:50.053Z,78.56
2023-01-22T01:16:52.761Z,78.39
2023-01-22T01:17:54.387Z,78.57
2023-01-22T01:18:58.817Z,78.60
2023-01-22T01:20:01.702Z,78.60
2023-01-22T01:21:07.212Z,78.54
2023-01-22T01:22:08.773Z,78.48
2023-01-22T01:23:11.255Z,78.44
2023-01-22T01:24:23.777Z,78.35
2023-01-22T01:25:35.351Z,78.30
2023-01-22T01:26:40.681Z,78.16
2023-01-22T01:27:46.993Z,78.86
2023-01-22T01:28:52.332Z,78.35
2023-01-22T01:29:53.836Z,78.19
2023-01-22T01:30:56.454Z,78.21
2023-01-22T01:31:58.944Z,78.22
2023-01-22T01:33:01.461Z,78.59
2023-01-22T01:34:04.104Z,78.44
2023-01-22T01:35:07.735Z,78.11
2023-01-22T01:36:13.148Z,78.57
2023-01-22T01:37:14.689Z,78.69
2023-01-22T01:38:17.152Z,78.25
2023-01-22T01:39:19.675Z,78.50
2023-01-22T01:40:21.225Z,78.21
2023-01-22T01:41:26.343Z,78.26
2023-01-22T01:42:32.617Z,78.34
2023-01-22T01:43:38.671Z,78.36
2023-01-22T01:44:40.442Z,78.35
2023-01-22T01:45:42.948Z,78.32
2023-01-22T01:46:47.960Z,78.05
2023-01-22T01:47:54.806Z,78.15
2023-01-22T01:49:15.174Z,78.11
2023-01-22T01:50:28.605Z,78.57
2023-01-22T01:51:37.514Z,78.26
2023-01-22T01:52:45.829Z,78.39
2023-01-22T01:53:51.577Z,78.31
2023-01-22T01:54:57.741Z,78.04
2023-01-22T01:56:03.065Z,78.26
2023-01-22T01:57:08.448Z,77.95
2023-01-22T01:58:21.257Z,78.08
2023-01-22T01:59:24.428Z,78.04
2023-01-22T02:00:34.861Z,78.17
2023-01-22T02:01:37.989Z,78.25
2023-01-22T02:02:41.290Z,78.07
2023-01-22T02:03:44.800Z,77.95
2023-01-22T02:04:48.116Z,77.80
2023-01-22T02:05:51.969Z,77.83
2023-01-22T02:06:53.635Z,77.85
2023-01-22T02:08:08.072Z,77.72
2023-01-22T02:09:09.619Z,78.08
2023-01-22T02:10:12.194Z,77.95
2023-01-22T02:11:14.398Z,78.13
2023-01-22T02:12:16.915Z,78.44
2023-01-22T02:13:32.326Z,77.67
2023-01-22T02:14:46.644Z,78.04
2023-01-22T02:15:48.152Z,77.96
2023-01-22T02:17:01.043Z,77.83
2023-01-22T02:18:12.599Z,77.82
2023-01-22T02:19:15.679Z,77.58
2023-01-22T02:20:18.498Z,77.71
2023-01-22T02:21:35.363Z,77.93
2023-01-22T02:22:38.978Z,77.83
2023-01-22T02:23:42.051Z,77.60
2023-01-22T02:24:43.729Z,77.90
2023-01-22T02:25:46.210Z,77.87
2023-01-22T02:26:47.726Z,77.89
2023-01-22T02:27:50.231Z,77.52
2023-01-22T02:28:51.744Z,77.68
2023-01-22T02:29:54.383Z,77.88
2023-01-22T02:30:55.970Z,77.49
2023-01-22T02:32:08.914Z,77.33
2023-01-22T02:33:11.104Z,77.38
2023-01-22T02:34:13.627Z,77.50
2023-01-22T02:35:15.217Z,77.39
2023-01-22T02:36:19.264Z,77.45
2023-01-22T02:37:32.123Z,77.73
2023-01-22T02:38:44.875Z,77.51
2023-01-22T02:39:46.455Z,77.43
2023-01-22T02:40:49.923Z,77.31
2023-01-22T02:41:51.742Z,77.21
2023-01-22T02:42:54.246Z,76.84
2023-01-22T02:43:55.825Z,77.25
2023-01-22T02:44:58.334Z,77.34
2023-01-22T02:46:00.483Z,77.24
2023-01-22T02:47:13.086Z,77.02
2023-01-22T02:48:14.820Z,77.14
2023-01-22T02:49:17.625Z,77.01
2023-01-22T02:50:19.534Z,77.04
2023-01-22T02:51:32.145Z,77.30
2023-01-22T02:52:48.989Z,76.63
2023-01-22T02:53:50.568Z,77.04
2023-01-22T02:54:53.094Z,77.11
2023-01-22T02:55:54.645Z,77.06
2023-01-22T02:56:57.523Z,76.84
2023-01-22T02:57:59.169Z,77.12
2023-01-22T02:59:02.182Z,76.75
2023-01-22T03:00:05.092Z,77.12
2023-01-22T03:01:18.664Z,76.81
2023-01-22T03:02:20.464Z,76.95
2023-01-22T03:03:43.031Z,77.03
2023-01-22T03:05:06.194Z,76.92
2023-01-22T03:06:29.687Z,76.54
2023-01-22T03:07:53.477Z,76.69
2023-01-22T03:09:17.357Z,76.53
2023-01-22T03:10:39.805Z,76.63
2023-01-22T03:12:02.438Z,76.72
2023-01-22T03:13:42.559Z,76.33
2023-01-22T03:15:23.088Z,76.70
2023-01-22T03:17:03.040Z,76.68
2023-01-22T03:18:43.231Z,76.51
2023-01-22T03:20:24.235Z,76.74
2023-01-22T03:21:46.683Z,76.19
2023-01-22T03:23:09.528Z,76.29
2023-01-22T03:24:32.196Z,76.67
2023-01-22T03:25:56.152Z,76.58
2023-01-22T03:27:19.683Z,76.35
2023-01-22T03:28:41.250Z,76.42
2023-01-22T03:30:03.846Z,76.51
2023-01-22T03:31:25.469Z,76.62
2023-01-22T03:32:49.312Z,76.47
2023-01-22T03:34:11.787Z,76.48
2023-01-22T03:35:33.288Z,76.72
2023-01-22T03:36:55.767Z,76.21
2023-01-22T03:38:18.898Z,76.48
2023-01-22T03:39:43.180Z,76.86
2023-01-22T03:41:06.961Z,76.68
2023-01-22T03:42:30.570Z,76.58
2023-01-22T03:43:52.144Z,76.76
2023-01-22T03:45:14.818Z,76.77
2023-01-22T03:46:36.392Z,76.98
2023-01-22T03:47:58.863Z,76.66
2023-01-22T03:49:21.550Z,76.72
2023-01-22T03:50:43.046Z,76.96
2023-01-22T03:52:05.522Z,76.79
2023-01-22T03:53:28.434Z,77.01
2023-01-22T03:54:50.898Z,76.43
2023-01-22T03:56:15.173Z,76.98
2023-01-22T03:57:37.704Z,76.78
2023-01-22T03:58:59.270Z,76.77
2023-01-22T04:00:22.296Z,76.83
2023-01-22T04:01:44.780Z,76.32
2023-01-22T04:03:06.342Z,76.47
2023-01-22T04:04:28.835Z,76.89
2023-01-22T04:05:50.355Z,76.87
2023-01-22T04:07:12.822Z,76.69
2023-01-22T04:08:37.091Z,76.57
2023-01-22T04:09:59.556Z,76.96
2023-01-22T04:11:23.270Z,77.32
2023-01-22T04:12:44.802Z,76.81
2023-01-22T04:14:07.314Z,76.99
2023-01-22T04:15:28.834Z,77.02
2023-01-22T04:16:51.840Z,77.42
2023-01-22T04:18:13.413Z,77.34
2023-01-22T04:19:35.875Z,77.36
2023-01-22T04:20:57.637Z,77.03
2023-01-22T04:22:20.142Z,77.30
2023-01-22T04:23:43.030Z,77.62
2023-01-22T04:25:06.411Z,77.52
2023-01-22T04:26:27.912Z,77.73
2023-01-22T04:27:50.416Z,77.36
2023-01-22T04:29:13.006Z,77.05
2023-01-22T04:30:34.696Z,77.49
2023-01-22T04:31:57.290Z,77.42
2023-01-22T04:33:19.364Z,77.07
2023-01-22T04:34:41.856Z,77.55
2023-01-22T04:36:03.506Z,77.37
2023-01-22T04:37:25.986Z,77.43
2023-01-22T04:38:49.872Z,77.47
2023-01-22T04:40:13.110Z,77.81
2023-01-22T04:41:35.570Z,77.76
2023-01-22T04:43:02.430Z,77.84
2023-01-22T04:44:26.069Z,77.94
2023-01-22T04:45:51.465Z,78.05
2023-01-22T04:47:14.107Z,77.94
2023-01-22T04:48:36.624Z,78.03
2023-01-22T04:49:58.357Z,78.05
2023-01-22T04:51:20.882Z,77.59
2023-01-22T04:52:42.625Z,77.88
2023-01-22T04:54:06.652Z,78.20
2023-01-22T04:55:29.068Z,78.08
2023-01-22T04:56:52.642Z,77.87
2023-01-22T04:58:15.115Z,78.14
2023-01-22T04:59:36.669Z,77.98
2023-01-22T05:00:59.479Z,78.05
2023-01-22T05:02:21.231Z,78.18
2023-01-22T05:03:43.765Z,78.26
2023-01-22T05:05:06.399Z,78.33
2023-01-22T05:06:28.981Z,78.22
2023-01-22T05:07:51.476Z,77.91
2023-01-22T05:09:15.317Z,78.19
2023-01-22T05:10:37.823Z,78.56
2023-01-22T05:11:59.350Z,78.14
2023-01-22T05:13:21.841Z,78.25
2023-01-22T05:14:44.421Z,78.21
2023-01-22T05:16:07.610Z,78.38
2023-01-22T05:17:30.115Z,78.06
2023-01-22T05:18:52.632Z,78.77
2023-01-22T05:20:14.164Z,78.78
2023-01-22T05:21:36.739Z,78.53
2023-01-22T05:22:59.209Z,78.54
2023-01-22T05:24:22.103Z,78.74
2023-01-22T05:25:48.680Z,78.81
2023-01-22T05:27:11.208Z,78.76
2023-01-22T05:28:33.686Z,78.91
2023-01-22T05:29:55.219Z,78.92
2023-01-22T05:31:17.814Z,78.76
2023-01-22T05:32:39.513Z,78.87
2023-01-22T05:34:02.039Z,78.72
2023-01-22T05:35:24.618Z,79.00
2023-01-22T05:36:46.188Z,79.27
2023-01-22T05:38:08.691Z,78.82
2023-01-22T05:39:34.503Z,79.31
2023-01-22T05:40:57.262Z,78.79
2023-01-22T05:42:21.212Z,79.00
2023-01-22T05:43:44.874Z,79.00
2023-01-22T05:45:10.462Z,79.21
2023-01-22T05:46:32.781Z,78.84
2023-01-22T05:47:55.560Z,79.38
2023-01-22T05:49:17.192Z,79.34
2023-01-22T05:50:40.997Z,79.29
2023-01-22T05:52:03.504Z,79.12
2023-01-22T05:53:25.042Z,79.13
2023-01-22T05:54:48.897Z,78.97
2023-01-22T05:56:10.598Z,79.19
2023-01-22T05:57:35.175Z,79.45
2023-01-22T05:58:56.707Z,79.40
2023-01-22T06:00:20.082Z,79.36
2023-01-22T06:01:42.760Z,79.81
2023-01-22T06:03:05.393Z,79.63
2023-01-22T06:04:28.099Z,80.07
2023-01-22T06:05:29.687Z,79.48
2023-01-22T06:06:32.179Z,79.75
2023-01-22T06:07:33.812Z,79.46
2023-01-22T06:08:36.292Z,79.63
2023-01-22T06:09:37.797Z,79.64
2023-01-22T06:10:41.615Z,79.80
2023-01-22T06:11:43.142Z,79.91
2023-01-22T06:12:45.870Z,79.43
2023-01-22T06:13:47.758Z,79.67
2023-01-22T06:14:50.564Z,80.06
2023-01-22T06:15:53.599Z,79.84
2023-01-22T06:16:56.126Z,79.92
2023-01-22T06:18:00.433Z,79.65
2023-01-22T06:19:02.933Z,80.38
2023-01-22T06:20:05.208Z,79.91
2023-01-22T06:21:08.804Z,79.76
2023-01-22T06:22:11.385Z,79.93
2023-01-22T06:23:13.089Z,79.80
2023-01-22T06:24:15.659Z,79.99
2023-01-22T06:25:17.216Z,80.08
2023-01-22T06:26:21.154Z,79.87
2023-01-22T06:27:22.657Z,80.04
2023-01-22T06:28:25.764Z,80.29
2023-01-22T06:29:27.292Z,79.93
2023-01-22T06:30:29.876Z,80.10
2023-01-22T06:31:32.307Z,80.14
2023-01-22T06:32:34.843Z,80.02
2023-01-22T06:33:37.910Z,80.06
2023-01-22T06:34:40.696Z,79.92
2023-01-22T06:35:42.249Z,80.10
2023-01-22T06:36:44.792Z,80.53
2023-01-22T06:37:46.387Z,80.15
2023-01-22T06:38:48.902Z,80.41
2023-01-22T06:39:50.479Z,80.06
2023-01-22T06:40:53.079Z,79.77
2023-01-22T06:41:56.918Z,79.85
2023-01-22T06:43:02.183Z,80.32
2023-01-22T06:44:04.876Z,80.23
2023-01-22T06:45:07.441Z,80.07
2023-01-22T06:46:10.002Z,80.06
2023-01-22T06:47:11.543Z,79.92
2023-01-22T06:48:14.064Z,80.35
2023-01-22T06:49:15.599Z,80.37
2023-01-22T06:50:21.160Z,80.03
2023-01-22T06:51:23.702Z,80.32
2023-01-22T06:52:25.330Z,80.44
2023-01-22T06:53:28.315Z,80.28
2023-01-22T06:54:31.756Z,80.29
2023-01-22T06:55:34.395Z,80.31
2023-01-22T06:56:35.966Z,80.44
2023-01-22T06:57:40.135Z,80.49
2023-01-22T06:58:52.599Z,79.84
2023-01-22T06:59:54.537Z,80.39
2023-01-22T07:01:01.240Z,80.20
2023-01-22T07:02:02.775Z,79.91
2023-01-22T07:03:08.704Z,79.88
2023-01-22T07:04:10.746Z,80.24
2023-01-22T07:05:15.368Z,80.26
2023-01-22T07:06:18.693Z,80.36
2023-01-22T07:07:21.193Z,80.19
2023-01-22T07:08:23.660Z,79.75
2023-01-22T07:09:26.390Z,79.93
2023-01-22T07:10:28.069Z,79.83
2023-01-22T07:11:30.587Z,80.05
2023-01-22T07:12:32.142Z,79.93
2023-01-22T07:13:39.286Z,80.07
2023-01-22T07:14:40.889Z,80.03
2023-01-22T07:15:43.454Z,80.03
2023-01-22T07:16:45.017Z,79.96
2023-01-22T07:17:50.997Z,79.67
2023-01-22T07:18:52.510Z,80.48
2023-01-22T07:19:55.021Z,80.00
2023-01-22T07:21:01.299Z,80.01
2023-01-22T07:22:02.898Z,80.18
2023-01-22T07:23:05.357Z,79.96
2023-01-22T07:24:07.004Z,80.18
2023-01-22T07:25:10.190Z,79.84
2023-01-22T07:26:12.700Z,80.28
2023-01-22T07:27:14.193Z,79.71
2023-01-22T07:28:16.716Z,79.69
2023-01-22T07:29:20.508Z,80.13
2023-01-22T07:30:23.174Z,79.95
2023-01-22T07:31:24.933Z,80.23
2023-01-22T07:32:27.512Z,79.86
2023-01-22T07:33:29.153Z,80.00
2023-01-22T07:34:31.643Z,80.29
2023-01-22T07:35:33.207Z,80.06
2023-01-22T07:36:35.760Z,80.25
2023-01-22T07:37:37.306Z,79.99
2023-01-22T07:38:39.873Z,79.98
2023-01-22T07:39:41.420Z,80.32
2023-01-22T07:40:43.900Z,79.87
2023-01-22T07:41:45.412Z,79.90
2023-01-22T07:42:48.001Z,80.01
2023-01-22T07:43:49.601Z,80.04
2023-01-22T07:44:53.438Z,80.19
2023-01-22T07:45:55.052Z,79.72
2023-01-22T07:46:57.620Z,80.28
2023-01-22T07:47:59.793Z,80.33
2023-01-22T07:49:02.273Z,79.97
2023-01-22T07:50:04.785Z,79.82
2023-01-22T07:51:08.499Z,80.07
2023-01-22T07:52:10.127Z,80.10
2023-01-22T07:53:14.089Z,80.51
2023-01-22T07:54:18.401Z,80.01
2023-01-22T07:55:21.492Z,80.16
2023-01-22T07:56:23.280Z,79.98
2023-01-22T07:57:25.783Z,80.33
2023-01-22T07:58:27.377Z,80.17
2023-01-22T07:59:29.975Z,79.90
2023-01-22T08:00:35.133Z,79.67
2023-01-22T08:01:38.899Z,79.91
2023-01-22T08:02:42.059Z,79.99
2023-01-22T08:03:45.182Z,79.91
2023-01-22T08:04:46.692Z,79.90
2023-01-22T08:05:49.224Z,79.71
2023-01-22T08:06:51.211Z,79.75
2023-01-22T08:07:54.027Z,80.29
2023-01-22T08:08:55.556Z,80.52
2023-01-22T08:09:58.051Z,80.01
2023-01-22T08:11:00.367Z,80.16
2023-01-22T08:12:03.064Z,80.17
2023-01-22T08:13:05.620Z,80.25
2023-01-22T08:14:07.144Z,80.43
2023-01-22T08:15:10.073Z,79.88
2023-01-22T08:16:13.141Z,79.98
2023-01-22T08:17:15.689Z,80.39
2023-01-22T08:18:19.112Z,80.62
2023-01-22T08:19:22.475Z,80.06
2023-01-22T08:20:28.473Z,79.95
2023-01-22T08:21:30.991Z,80.28
2023-01-22T08:22:32.682Z,80.65
2023-01-22T08:23:35.273Z,80.26
2023-01-22T08:24:37.867Z,80.74
2023-01-22T08:25:39.600Z,80.47
2023-01-22T08:26:42.124Z,80.40
2023-01-22T08:27:44.679Z,80.69
2023-01-22T08:28:47.177Z,80.04
2023-01-22T08:29:49.714Z,80.25
2023-01-22T08:30:52.195Z,80.28
2023-01-22T08:31:55.191Z,80.69
2023-01-22T08:32:57.726Z,80.41
2023-01-22T08:33:59.606Z,80.33
2023-01-22T08:35:02.238Z,80.33
2023-01-22T08:36:04.362Z,80.10
2023-01-22T08:37:07.277Z,79.99
2023-01-22T08:38:08.827Z,80.20
2023-01-22T08:39:11.545Z,80.43
2023-01-22T08:40:13.855Z,80.19
2023-01-22T08:41:16.600Z,80.05
2023-01-22T08:42:19.313Z,80.04
2023-01-22T08:43:20.996Z,80.03
2023-01-22T08:44:23.617Z,80.23
2023-01-22T08:45:25.168Z,80.11
2023-01-22T08:46:27.825Z,79.74
2023-01-22T08:47:32.339Z,79.77
2023-01-22T08:48:34.875Z,80.15
2023-01-22T08:49:36.589Z,80.17
2023-01-22T08:50:39.123Z,80.13
2023-01-22T08:51:40.674Z,79.86
2023-01-22T08:52:43.237Z,80.28
2023-01-22T08:53:44.856Z,80.39
2023-01-22T08:54:47.332Z,79.87
2023-01-22T08:55:49.400Z,80.14
2023-01-22T08:56:51.906Z,80.19
2023-01-22T08:57:54.064Z,80.05
2023-01-22T08:58:59.951Z,79.78
2023-01-22T09:00:02.613Z,80.39
2023-01-22T09:01:04.918Z,79.97
2023-01-22T09:02:07.559Z,79.73
2023-01-22T09:03:10.415Z,80.30
2023-01-22T09:04:12.900Z,80.50
2023-01-22T09:05:14.631Z,80.11
2023-01-22T09:06:18.266Z,80.42
2023-01-22T09:07:19.822Z,80.77
2023-01-22T09:08:22.319Z,80.19
2023-01-22T09:09:23.850Z,80.32
2023-01-22T09:10:26.492Z,80.67
2023-01-22T09:11:29.268Z,80.64
2023-01-22T09:12:32.142Z,80.01
2023-01-22T09:13:33.804Z,80.09
2023-01-22T09:14:36.508Z,80.56
2023-01-22T09:15:39.803Z,80.71
2023-01-22T09:16:42.424Z,80.42
2023-01-22T09:17:45.177Z,80.47
2023-01-22T09:18:49.014Z,80.25
2023-01-22T09:19:51.570Z,80.61
2023-01-22T09:20:54.075Z,79.96
2023-01-22T09:21:56.583Z,80.00
2023-01-22T09:22:58.101Z,80.42
2023-01-22T09:24:01.026Z,80.31
2023-01-22T09:25:02.584Z,80.53
2023-01-22T09:26:05.427Z,80.32
2023-01-22T09:27:08.970Z,80.54
2023-01-22T09:28:12.200Z,80.60
2023-01-22T09:29:20.311Z,80.34
2023-01-22T09:30:22.228Z,80.18
2023-01-22T09:31:24.800Z,80.07
2023-01-22T09:32:26.371Z,80.09
2023-01-22T09:33:29.051Z,79.92
2023-01-22T09:34:33.215Z,80.12
2023-01-22T09:35:35.914Z,80.11
2023-01-22T09:36:38.525Z,79.77
2023-01-22T09:37:41.252Z,79.97
2023-01-22T09:38:44.354Z,79.86
2023-01-22T09:39:48.145Z,80.06
2023-01-22T09:40:54.746Z,79.91
2023-01-22T09:42:01.435Z,80.03
2023-01-22T09:43:05.494Z,80.15
2023-01-22T09:44:17.600Z,80.25
2023-01-22T09:45:26.180Z,80.02
2023-01-22T09:46:31.723Z,80.05
2023-01-22T09:47:38.318Z,80.07
2023-01-22T09:48:44.836Z,80.04
2023-01-22T09:49:56.110Z,79.81
2023-01-22T09:50:58.645Z,79.76
2023-01-22T09:52:05.331Z,80.03
2023-01-22T09:53:13.333Z,79.97
2023-01-22T09:54:17.262Z,79.65
2023-01-22T09:55:21.115Z,79.91
2023-01-22T09:56:30.303Z,79.83
2023-01-22T09:57:32.482Z,79.71
2023-01-22T09:58:36.563Z,79.88
2023-01-22T09:59:44.417Z,79.72
2023-01-22T10:00:49.968Z,79.73
2023-01-22T10:01:57.709Z,79.79
2023-01-22T10:03:04.524Z,79.59
2023-01-22T10:04:22.051Z,79.50
2023-01-22T10:05:32.378Z,79.98
2023-01-22T10:06:36.096Z,79.54
2023-01-22T10:07:43.962Z,79.88
2023-01-22T10:08:55.088Z,79.70
2023-01-22T10:10:02.189Z,79.97
2023-01-22T10:11:05.782Z,80.04
2023-01-22T10:12:14.144Z,79.80
2023-01-22T10:13:19.079Z,79.78
2023-01-22T10:14:24.159Z,80.02
2023-01-22T10:15:25.924Z,80.08
2023-01-22T10:16:29.146Z,80.00
2023-01-22T10:17:35.052Z,79.77
2023-01-22T10:18:43.215Z,79.87
2023-01-22T10:19:49.451Z,79.68
2023-01-22T10:20:53.345Z,79.99
2023-01-22T10:22:01.566Z,79.97
2023-01-22T10:23:16.791Z,79.89
2023-01-22T10:24:19.345Z,80.01
2023-01-22T10:25:22.110Z,80.05
2023-01-22T10:26:33.836Z,79.95
2023-01-22T10:27:39.566Z,80.04
2023-01-22T10:28:44.106Z,79.61
2023-01-22T10:29:59.004Z,79.89
2023-01-22T10:31:01.647Z,79.86
2023-01-22T10:32:18.502Z,79.78
2023-01-22T10:33:24.041Z,79.96
2023-01-22T10:34:32.459Z,79.88
2023-01-22T10:35:42.872Z,79.87
2023-01-22T10:36:52.502Z,79.81
2023-01-22T10:37:55.816Z,79.92
2023-01-22T10:39:12.031Z,80.07
2023-01-22T10:40:22.988Z,79.95
2023-01-22T10:41:25.661Z,80.01
2023-01-22T10:42:29.129Z,79.86
2023-01-22T10:43:33.966Z,79.88
2023-01-22T10:44:35.867Z,79.99
2023-01-22T10:45:38.886Z,80.10
2023-01-22T10:46:41.408Z,79.82
2023-01-22T10:47:43.219Z,79.69
2023-01-22T10:48:45.708Z,80.13
2023-01-22T10:49:47.768Z,79.78
2023-01-22T10:51:02.853Z,79.79
2023-01-22T10:52:22.141Z,80.03
2023-01-22T10:53:31.704Z,80.13
2023-01-22T10:54:36.171Z,79.91
2023-01-22T10:55:43.670Z,79.56
2023-01-22T10:56:45.606Z,79.93
2023-01-22T10:57:52.848Z,79.63
2023-01-22T10:58:55.285Z,79.50
2023-01-22T11:00:06.201Z,79.74
2023-01-22T11:01:28.554Z,79.73
2023-01-22T11:02:30.425Z,79.86
2023-01-22T11:03:36.789Z,79.88
2023-01-22T11:04:39.315Z,79.75
2023-01-22T11:05:45.700Z,79.97
2023-01-22T11:06:51.945Z,79.72
2023-01-22T11:07:59.606Z,79.82
2023-01-22T11:09:06.854Z,79.79
2023-01-22T11:10:19.181Z,79.84
2023-01-22T11:11:30.254Z,79.92
2023-01-22T11:12:38.952Z,79.61
2023-01-22T11:13:49.009Z,79.93
2023-01-22T11:14:59.429Z,79.84
2023-01-22T11:16:10.890Z,79.54
2023-01-22T11:17:21.283Z,79.45
2023-01-22T11:18:29.812Z,79.52
2023-01-22T11:19:41.259Z,79.44
2023-01-22T11:20:56.100Z,79.48
2023-01-22T11:21:58.574Z,79.53
2023-01-22T11:23:22.341Z,79.85
2023-01-22T11:24:33.235Z,79.55
2023-01-22T11:25:41.354Z,79.69
2023-01-22T11:27:15.314Z,79.50
2023-01-22T11:28:26.801Z,79.54
2023-01-22T11:29:40.819Z,79.70
2023-01-22T11:30:58.217Z,79.63
2023-01-22T11:32:19.841Z,79.29
2023-01-22T11:33:48.675Z,79.60
2023-01-22T11:34:57.877Z,79.41
2023-01-22T11:36:05.412Z,79.39
2023-01-22T11:37:12.685Z,79.35
2023-01-22T11:38:29.954Z,79.39
2023-01-22T11:39:49.840Z,79.39
2023-01-22T11:41:18.621Z,79.16
2023-01-22T11:42:35.831Z,79.09
2023-01-22T11:43:55.592Z,79.09
2023-01-22T11:45:13.197Z,79.23
2023-01-22T11:46:28.846Z,79.19
2023-01-22T11:48:02.467Z,79.24
2023-01-22T11:49:19.264Z,79.30
2023-01-22T11:50:40.278Z,79.15
2023-01-22T11:51:52.218Z,78.89
2023-01-22T11:53:07.290Z,78.88
2023-01-22T11:54:26.997Z,78.68
2023-01-22T11:55:50.126Z,79.10
2023-01-22T11:57:09.943Z,78.80
2023-01-22T11:58:25.731Z,79.05
2023-01-22T11:59:41.661Z,79.20
2023-01-22T12:00:52.403Z,78.97
2023-01-22T12:02:11.493Z,78.90
2023-01-22T12:03:46.029Z,78.91
2023-01-22T12:05:05.572Z,78.98
2023-01-22T12:06:24.838Z,78.95
2023-01-22T12:07:52.280Z,79.15
2023-01-22T12:09:01.690Z,79.16
2023-01-22T12:10:23.992Z,78.90
2023-01-22T12:11:56.323Z,79.01
2023-01-22T12:13:08.759Z,78.79
2023-01-22T12:14:33.679Z,79.07
2023-01-22T12:15:45.298Z,78.83
2023-01-22T12:16:55.424Z,78.87
2023-01-22T12:18:25.837Z,79.21
2023-01-22T12:19:52.302Z,79.02
2023-01-22T12:21:07.549Z,79.10
2023-01-22T12:22:21.839Z,78.92
2023-01-22T12:23:30.176Z,78.91
2023-01-22T12:24:37.725Z,78.95
2023-01-22T12:25:48.603Z,78.92
2023-01-22T12:26:56.576Z,78.71
2023-01-22T12:28:04.892Z,78.57
2023-01-22T12:29:16.436Z,78.66
2023-01-22T12:30:24.048Z,78.58
2023-01-22T12:31:33.181Z,78.47
2023-01-22T12:32:36.855Z,78.58
2023-01-22T12:33:42.121Z,78.54
2023-01-22T12:34:49.324Z,78.58
2023-01-22T12:35:52.844Z,78.69
2023-01-22T12:36:56.621Z,78.61
2023-01-22T12:38:12.278Z,78.66
2023-01-22T12:39:30.005Z,78.63
2023-01-22T12:40:57.554Z,78.70
2023-01-22T12:42:12.657Z,78.56
2023-01-22T12:43:14.418Z,78.67
2023-01-22T12:44:35.605Z,78.66
2023-01-22T12:45:44.536Z,78.72
2023-01-22T12:46:59.828Z,78.63
2023-01-22T12:48:16.275Z,78.63
2023-01-22T12:49:20.750Z,78.46
2023-01-22T12:50:26.936Z,78.50
2023-01-22T12:51:39.305Z,78.49
2023-01-22T12:52:40.983Z,78.59
2023-01-22T12:53:43.585Z,78.53
2023-01-22T12:54:55.140Z,78.78
2023-01-22T12:56:05.091Z,78.33
2023-01-22T12:57:23.195Z,78.43
2023-01-22T12:58:27.045Z,78.49
2023-01-22T12:59:42.086Z,78.42
2023-01-22T13:00:44.774Z,78.34
2023-01-22T13:02:02.900Z,78.36
2023-01-22T13:03:30.888Z,78.34
2023-01-22T13:04:38.655Z,78.35
2023-01-22T13:05:44.723Z,78.38
2023-01-22T13:06:48.183Z,78.19
2023-01-22T13:08:00.762Z,78.22
2023-01-22T13:09:04.797Z,78.30
2023-01-22T13:10:23.325Z,78.31
2023-01-22T13:11:32.307Z,78.27
2023-01-22T13:12:49.521Z,78.40
2023-01-22T13:14:00.669Z,78.12
2023-01-22T13:15:18.049Z,78.27
2023-01-22T13:16:32.884Z,77.99
2023-01-22T13:17:35.805Z,78.13
2023-01-22T13:18:41.979Z,78.02
2023-01-22T13:19:46.340Z,78.41
2023-01-22T13:21:02.691Z,78.31
2023-01-22T13:22:06.972Z,78.27
2023-01-22T13:23:12.131Z,78.44
2023-01-22T13:24:16.385Z,78.16
2023-01-22T13:25:26.535Z,78.27
2023-01-22T13:26:34.198Z,78.26
2023-01-22T13:27:36.837Z,78.01
2023-01-22T13:28:41.963Z,78.03
2023-01-22T13:29:45.658Z,78.05
2023-01-22T13:30:57.221Z,78.42
2023-01-22T13:32:00.305Z,78.17
2023-01-22T13:33:05.333Z,78.02
2023-01-22T13:34:15.576Z,78.03
2023-01-22T13:35:20.021Z,77.98
2023-01-22T13:36:21.760Z,77.85
2023-01-22T13:37:26.686Z,77.95
2023-01-22T13:38:32.835Z,78.07
2023-01-22T13:39:34.699Z,77.77
2023-01-22T13:40:50.805Z,77.93
2023-01-22T13:41:57.218Z,77.90
2023-01-22T13:42:59.775Z,77.85
2023-01-22T13:44:03.391Z,77.96
2023-01-22T13:45:06.322Z,77.86
2023-01-22T13:46:14.316Z,77.86
2023-01-22T13:47:28.098Z,78.07
2023-01-22T13:48:31.048Z,77.88
2023-01-22T13:49:35.102Z,78.01
2023-01-22T13:50:38.215Z,77.93
2023-01-22T13:51:41.235Z,77.88
2023-01-22T13:52:44.222Z,77.93
2023-01-22T13:53:51.187Z,77.76
2023-01-22T13:55:01.869Z,77.72
2023-01-22T13:56:04.092Z,77.83
2023-01-22T13:57:08.138Z,77.80
2023-01-22T13:58:38.985Z,77.94
2023-01-22T13:59:54.687Z,77.92
2023-01-22T14:00:56.285Z,77.92
2023-01-22T14:01:58.828Z,77.94
2023-01-22T14:03:02.288Z,77.90
2023-01-22T14:04:06.915Z,77.72
2023-01-22T14:05:18.328Z,77.86
2023-01-22T14:06:20.816Z,77.89
2023-01-22T14:07:25.431Z,77.73
2023-01-22T14:08:26.995Z,77.92
2023-01-22T14:09:32.212Z,78.08
2023-01-22T14:10:34.005Z,77.79
2023-01-22T14:11:40.116Z,77.61
2023-01-22T14:12:45.391Z,77.64
2023-01-22T14:13:51.373Z,77.65
2023-01-22T14:14:54.133Z,77.76
2023-01-22T14:16:01.884Z,77.70
2023-01-22T14:17:04.514Z,77.73
2023-01-22T14:18:08.515Z,77.69
2023-01-22T14:19:11.072Z,77.92
2023-01-22T14:20:13.233Z,77.75
2023-01-22T14:21:16.443Z,77.71
2023-01-22T14:22:18.405Z,77.66
2023-01-22T14:23:20.965Z,77.87
2023-01-22T14:24:22.505Z,77.80
2023-01-22T14:25:27.497Z,77.68
2023-01-22T14:26:29.617Z,77.72
2023-01-22T14:27:41.171Z,77.86
2023-01-22T14:28:45.356Z,77.70
2023-01-22T14:29:46.982Z,77.64
2023-01-22T14:30:50.044Z,77.52
2023-01-22T14:31:52.562Z,77.73
2023-01-22T14:32:54.542Z,77.61
2023-01-22T14:33:57.097Z,77.53
2023-01-22T14:34:59.780Z,77.69
2023-01-22T14:36:02.303Z,77.67
2023-01-22T14:37:04.869Z,77.79
2023-01-22T14:38:07.101Z,77.73
2023-01-22T14:39:09.601Z,77.80
2023-01-22T14:40:13.384Z,77.71
2023-01-22T14:41:15.875Z,77.64
2023-01-22T14:42:18.402Z,77.79
2023-01-22T14:43:20.181Z,77.76
2023-01-22T14:44:24.465Z,77.89
2023-01-22T14:45:26.043Z,77.78
2023-01-22T14:46:28.558Z,77.75
2023-01-22T14:47:30.111Z,77.97
2023-01-22T14:48:32.678Z,77.77
2023-01-22T14:49:35.419Z,77.82
2023-01-22T14:50:39.974Z,77.91
2023-01-22T14:51:41.552Z,77.92
2023-01-22T14:52:44.132Z,77.86
2023-01-22T14:53:46.621Z,77.74
2023-01-22T14:54:48.120Z,77.88
2023-01-22T14:55:50.747Z,77.92
2023-01-22T14:56:54.158Z,77.87
2023-01-22T14:57:57.523Z,77.89
2023-01-22T14:59:00.262Z,77.94
2023-01-22T15:00:05.569Z,77.67
2023-01-22T15:01:16.494Z,77.75
2023-01-22T15:02:19.735Z,77.98